createdAt,value
2019-01-14T00:01:06.031Z,6.20
2019-01-14T00:03:37.456Z,6.20
2019-01-14T00:06:10.299Z,6.20
2019-01-14T00:08:40.020Z,6.20
2019-01-14T00:11:09.457Z,6.20
2019-01-14T00:13:45.667Z,6.30
2019-01-14T00:16:21.831Z,6.30
2019-01-14T00:18:51.354Z,6.30
2019-01-14T00:21:20.774Z,6.30
2019-01-14T00:23:57.075Z,6.30
2019-01-14T00:26:34.876Z,6.30
2019-01-14T00:29:04.972Z,6.30
2019-01-14T00:31:40.262Z,6.30
2019-01-14T00:34:09.964Z,6.30
2019-01-14T00:36:45.283Z,6.30
2019-01-14T00:39:14.763Z,6.40
2019-01-14T00:41:44.248Z,6.30
2019-01-14T00:44:13.631Z,6.30
2019-01-14T00:46:45.043Z,6.30
2019-01-14T00:49:17.847Z,6.20
2019-01-14T00:51:47.277Z,6.20
2019-01-14T00:54:16.773Z,6.20
2019-01-14T00:56:55.354Z,6.10
2019-01-14T00:59:26.757Z,6.10
2019-01-14T01:01:56.176Z,6.10
2019-01-14T01:04:29.676Z,6.10
2019-01-14T01:07:04.893Z,6.10
2019-01-14T01:09:38.268Z,6.10
2019-01-14T01:12:08.368Z,6.10
2019-01-14T01:14:39.840Z,6.10
2019-01-14T01:17:09.371Z,6.20
2019-01-14T01:19:41.817Z,6.10
2019-01-14T01:22:17.279Z,6.10
2019-01-14T01:24:46.827Z,6.20
2019-01-14T01:27:24.374Z,6.10
2019-01-14T01:29:53.678Z,6.10
2019-01-14T01:32:32.199Z,6.00
2019-01-14T01:35:01.663Z,6.00
2019-01-14T01:37:32.156Z,6.00
2019-01-14T01:40:01.650Z,5.90
2019-01-14T01:42:32.104Z,5.90
2019-01-14T01:45:02.547Z,5.90
2019-01-14T01:47:35.278Z,5.80
2019-01-14T01:50:06.048Z,5.80
2019-01-14T01:52:35.512Z,5.80
2019-01-14T01:55:05.470Z,5.80
2019-01-14T01:57:36.488Z,5.80
2019-01-14T02:00:08.616Z,5.80
2019-01-14T02:02:38.057Z,5.80
2019-01-14T02:05:16.690Z,5.70
2019-01-14T02:07:51.981Z,5.60
2019-01-14T02:10:23.020Z,5.50
2019-01-14T02:13:12.268Z,5.50
2019-01-14T02:15:43.678Z,5.50
2019-01-14T02:18:13.178Z,5.50
2019-01-14T02:20:42.560Z,5.50
2019-01-14T02:23:12.006Z,5.60
2019-01-14T02:25:41.389Z,5.60
2019-01-14T02:28:10.778Z,5.60
2019-01-14T02:30:40.217Z,5.70
2019-01-14T02:33:11.918Z,5.70
2019-01-14T02:35:41.336Z,5.70
2019-01-14T02:38:10.705Z,5.70
2019-01-14T02:40:43.227Z,5.80
2019-01-14T02:43:14.009Z,5.80
2019-01-14T02:45:43.447Z,5.80
2019-01-14T02:48:12.854Z,5.80
2019-01-14T02:50:42.305Z,5.80
2019-01-14T02:53:14.434Z,5.80
2019-01-14T02:55:43.941Z,5.80
2019-01-14T02:58:14.338Z,5.80
2019-01-14T03:00:43.777Z,5.80
2019-01-14T03:03:22.212Z,5.80
2019-01-14T03:05:52.690Z,5.80
2019-01-14T03:08:26.388Z,5.80
2019-01-14T03:10:58.669Z,5.80
2019-01-14T03:13:30.539Z,5.80
2019-01-14T03:16:00.072Z,5.90
2019-01-14T03:18:29.534Z,5.90
2019-01-14T03:20:58.971Z,5.90
2019-01-14T03:23:36.204Z,5.80
2019-01-14T03:26:11.781Z,5.80
2019-01-14T03:28:41.180Z,5.80
2019-01-14T03:31:16.578Z,5.70
2019-01-14T03:33:58.144Z,5.70
2019-01-14T03:36:28.662Z,5.70
2019-01-14T03:38:58.278Z,5.70
2019-01-14T03:41:27.794Z,5.60
2019-01-14T03:44:15.422Z,5.60
2019-01-14T03:46:44.878Z,5.60
2019-01-14T03:49:14.340Z,5.50
2019-01-14T03:51:44.000Z,5.50
2019-01-14T03:54:20.835Z,5.60
2019-01-14T03:56:51.507Z,5.60
2019-01-14T03:59:21.960Z,5.50
2019-01-14T04:01:53.578Z,5.50
2019-01-14T04:04:30.951Z,5.50
2019-01-14T04:07:13.832Z,5.50
2019-01-14T04:09:44.680Z,5.50
2019-01-14T04:12:14.084Z,5.50
2019-01-14T04:14:50.406Z,5.50
2019-01-14T04:17:19.848Z,5.50
2019-01-14T04:19:50.246Z,5.50
2019-01-14T04:22:23.761Z,5.50
2019-01-14T04:24:53.181Z,5.50
2019-01-14T04:27:23.617Z,5.50
2019-01-14T04:29:53.025Z,5.50
2019-01-14T04:32:25.747Z,5.50
2019-01-14T04:35:16.210Z,5.50
2019-01-14T04:37:47.895Z,5.60
2019-01-14T04:40:17.346Z,5.60
2019-01-14T04:42:47.048Z,5.60
2019-01-14T04:45:17.466Z,5.60
2019-01-14T04:47:46.932Z,5.60
2019-01-14T04:50:19.245Z,5.60
2019-01-14T04:53:02.744Z,5.60
2019-01-14T04:55:41.300Z,5.60
2019-01-14T04:58:10.761Z,5.60
2019-01-14T05:00:42.264Z,5.60
2019-01-14T05:03:16.660Z,5.60
2019-01-14T05:05:46.106Z,5.60
2019-01-14T05:08:15.512Z,5.60
2019-01-14T05:10:53.698Z,5.60
2019-01-14T05:13:23.135Z,5.60
2019-01-14T05:15:52.589Z,5.60
2019-01-14T05:18:23.166Z,5.60
2019-01-14T05:20:52.733Z,5.50
2019-01-14T05:23:24.382Z,5.50
2019-01-14T05:25:53.832Z,5.50
2019-01-14T05:28:23.342Z,5.50
2019-01-14T05:30:53.744Z,5.40
2019-01-14T05:33:26.768Z,5.50
2019-01-14T05:35:57.239Z,5.50
2019-01-14T05:38:26.776Z,5.40
2019-01-14T05:41:03.114Z,5.40
2019-01-14T05:43:32.539Z,5.50
2019-01-14T05:46:16.525Z,5.50
2019-01-14T05:48:45.984Z,5.50
2019-01-14T05:51:16.450Z,5.40
2019-01-14T05:53:45.853Z,5.50
2019-01-14T05:56:15.261Z,5.50
2019-01-14T05:58:46.724Z,5.50
2019-01-14T06:01:16.124Z,5.50
2019-01-14T06:03:46.602Z,5.50
2019-01-14T06:06:15.954Z,5.50
2019-01-14T06:08:47.740Z,5.50
2019-01-14T06:11:27.216Z,5.50
2019-01-14T06:13:56.883Z,5.50
2019-01-14T06:16:26.235Z,5.50
2019-01-14T06:19:01.511Z,5.50
2019-01-14T06:21:36.996Z,5.50
2019-01-14T06:24:06.380Z,5.50
2019-01-14T06:26:35.788Z,5.50
2019-01-14T06:29:06.289Z,5.60
2019-01-14T06:31:37.676Z,5.50
2019-01-14T06:34:15.993Z,5.50
2019-01-14T06:36:45.305Z,5.50
2019-01-14T06:39:17.835Z,5.50
2019-01-14T06:41:47.216Z,5.50
2019-01-14T06:44:29.668Z,5.60
2019-01-14T06:47:11.171Z,5.50
2019-01-14T06:49:40.596Z,5.50
2019-01-14T06:52:10.099Z,5.50
2019-01-14T06:54:41.724Z,5.50
2019-01-14T06:57:11.395Z,5.50
2019-01-14T06:59:43.936Z,5.50
2019-01-14T07:02:19.189Z,5.40
2019-01-14T07:04:48.538Z,5.50
2019-01-14T07:07:32.102Z,5.50
2019-01-14T07:10:01.496Z,5.50
2019-01-14T07:12:40.089Z,5.50
2019-01-14T07:15:10.107Z,5.50
2019-01-14T07:17:39.589Z,5.40
2019-01-14T07:20:09.388Z,5.40
2019-01-14T07:22:38.778Z,5.30
2019-01-14T07:25:08.431Z,5.20
2019-01-14T07:27:49.937Z,5.10
2019-01-14T07:30:21.683Z,5.00
2019-01-14T07:32:59.178Z,4.90
2019-01-14T07:35:33.724Z,4.80
2019-01-14T07:38:06.860Z,4.70
2019-01-14T07:40:35.346Z,4.70
2019-01-14T07:43:04.740Z,4.60
2019-01-14T07:45:36.336Z,4.60
2019-01-14T07:48:05.825Z,4.60
2019-01-14T07:50:43.434Z,4.50
2019-01-14T07:53:12.835Z,4.40
2019-01-14T07:55:43.364Z,4.40
2019-01-14T07:58:12.754Z,4.40
2019-01-14T08:00:42.522Z,4.30
2019-01-14T08:03:11.991Z,4.30
2019-01-14T08:05:42.423Z,4.30
2019-01-14T08:08:44.669Z,4.20
2019-01-14T08:11:15.140Z,4.20
2019-01-14T08:13:46.059Z,4.20
2019-01-14T08:16:15.514Z,4.30
2019-01-14T08:18:45.952Z,4.30
2019-01-14T08:21:15.371Z,4.30
2019-01-14T08:23:46.962Z,4.30
2019-01-14T08:26:17.352Z,4.30
2019-01-14T08:28:48.732Z,4.30
2019-01-14T08:31:17.917Z,4.40
2019-01-14T08:33:47.377Z,4.40
2019-01-14T08:36:33.148Z,4.40
2019-01-14T08:39:04.529Z,4.40
2019-01-14T08:41:36.799Z,4.30
2019-01-14T08:44:09.457Z,4.30
2019-01-14T08:46:43.239Z,4.30
2019-01-14T08:49:15.067Z,4.30
2019-01-14T08:51:48.680Z,4.40
2019-01-14T08:54:20.182Z,4.40
2019-01-14T08:56:49.722Z,4.40
2019-01-14T08:59:20.449Z,4.50
2019-01-14T09:01:49.941Z,4.60
2019-01-14T09:04:22.677Z,4.60
2019-01-14T09:06:51.436Z,4.60
2019-01-14T09:09:20.890Z,4.60
2019-01-14T09:11:50.352Z,4.70
2019-01-14T09:14:25.795Z,4.70
2019-01-14T09:16:56.842Z,4.70
2019-01-14T09:19:27.319Z,4.70
2019-01-14T09:21:56.748Z,4.70
2019-01-14T09:24:37.334Z,4.60
2019-01-14T09:27:06.854Z,4.70
2019-01-14T09:29:36.399Z,4.70
2019-01-14T09:32:06.750Z,4.70
2019-01-14T09:34:36.181Z,4.60
2019-01-14T09:37:13.758Z,4.60
2019-01-14T09:39:48.645Z,4.60
2019-01-14T09:42:20.047Z,4.60
2019-01-14T09:44:51.490Z,4.60
2019-01-14T09:47:23.213Z,4.70
2019-01-14T09:49:52.654Z,4.70
2019-01-14T09:52:28.510Z,4.70
2019-01-14T09:55:05.440Z,4.80
2019-01-14T09:57:32.411Z,4.90
2019-01-14T10:00:02.816Z,4.90
2019-01-14T10:02:32.243Z,4.80
2019-01-14T10:05:02.580Z,4.90
2019-01-14T10:07:33.069Z,4.90
2019-01-14T10:10:02.497Z,4.90
2019-01-14T10:12:40.863Z,4.90
2019-01-14T10:15:13.424Z,5.00
2019-01-14T10:17:43.333Z,5.00
2019-01-14T10:20:16.913Z,5.10
2019-01-14T10:22:51.586Z,5.20
2019-01-14T10:25:21.088Z,5.30
2019-01-14T10:27:50.543Z,5.30
2019-01-14T10:30:28.329Z,5.20
2019-01-14T10:33:03.587Z,5.20
2019-01-14T10:35:34.042Z,5.20
2019-01-14T10:38:03.475Z,5.20
2019-01-14T10:40:35.008Z,5.10
2019-01-14T10:43:10.465Z,5.20
2019-01-14T10:46:05.894Z,5.10
2019-01-14T10:48:44.401Z,5.00
2019-01-14T10:51:15.950Z,4.90
2019-01-14T10:53:48.501Z,4.90
2019-01-14T10:56:18.403Z,4.90
2019-01-14T10:58:52.908Z,5.10
2019-01-14T11:01:31.523Z,5.30
2019-01-14T11:04:09.289Z,5.50
2019-01-14T11:06:39.254Z,5.50
2019-01-14T11:09:10.803Z,5.40
2019-01-14T11:11:40.263Z,5.50
2019-01-14T11:14:10.691Z,5.40
2019-01-14T11:16:40.071Z,5.30
2019-01-14T11:19:09.600Z,5.40
2019-01-14T11:21:42.297Z,5.40
2019-01-14T11:24:11.759Z,5.40
2019-01-14T11:26:43.172Z,5.40
2019-01-14T11:29:17.740Z,5.60
2019-01-14T11:31:52.279Z,5.60
2019-01-14T11:34:26.929Z,5.50
2019-01-14T11:36:56.384Z,5.60
2019-01-14T11:39:25.875Z,5.60
2019-01-14T11:41:55.708Z,5.70
2019-01-14T11:44:25.218Z,5.60
2019-01-14T11:46:57.738Z,5.60
2019-01-14T11:49:38.275Z,5.60
2019-01-14T11:52:13.989Z,5.60
2019-01-14T11:55:02.690Z,5.60
2019-01-14T11:57:32.166Z,5.50
2019-01-14T12:00:01.614Z,5.60
2019-01-14T12:02:46.208Z,5.50
2019-01-14T12:05:16.704Z,5.50
2019-01-14T12:07:47.202Z,5.40
2019-01-14T12:10:16.768Z,5.50
2019-01-14T12:12:48.587Z,5.70
2019-01-14T12:15:21.426Z,5.90
2019-01-14T12:17:50.888Z,6.20
2019-01-14T12:20:21.316Z,6.30
2019-01-14T12:22:58.713Z,6.00
2019-01-14T12:25:28.157Z,5.80
2019-01-14T12:27:57.702Z,5.80
2019-01-14T12:30:41.780Z,5.80
2019-01-14T12:33:11.437Z,5.70
2019-01-14T12:35:40.937Z,5.70
2019-01-14T12:38:21.590Z,5.60
2019-01-14T12:40:52.978Z,5.40
2019-01-14T12:43:28.224Z,5.30
2019-01-14T12:46:00.472Z,5.30
2019-01-14T12:48:30.958Z,5.30
2019-01-14T12:51:02.437Z,5.20
2019-01-14T12:53:31.874Z,5.20
2019-01-14T12:56:01.302Z,5.20
2019-01-14T12:58:34.949Z,5.20
2019-01-14T13:01:17.482Z,5.20
2019-01-14T13:03:46.898Z,5.20
2019-01-14T13:06:18.120Z,5.30
2019-01-14T13:08:48.389Z,5.30
2019-01-14T13:11:17.828Z,5.30
2019-01-14T13:13:47.234Z,5.40
2019-01-14T13:16:17.716Z,5.50
2019-01-14T13:18:49.013Z,5.50
2019-01-14T13:21:18.814Z,5.50
2019-01-14T13:23:50.259Z,5.50
2019-01-14T13:26:19.821Z,5.50
2019-01-14T13:28:51.210Z,5.80
2019-01-14T13:31:20.687Z,7.00
2019-01-14T13:33:50.140Z,6.70
2019-01-14T13:36:20.598Z,7.10
2019-01-14T13:38:50.093Z,7.40
2019-01-14T13:41:19.586Z,7.40
2019-01-14T13:43:49.024Z,6.90
2019-01-14T13:46:26.331Z,6.10
2019-01-14T13:48:57.063Z,5.60
2019-01-14T13:51:31.832Z,5.50
2019-01-14T13:54:11.440Z,5.40
2019-01-14T13:56:40.814Z,5.20
2019-01-14T13:59:10.305Z,5.10
2019-01-14T14:01:40.831Z,5.10
2019-01-14T14:04:24.623Z,5.00
2019-01-14T14:06:54.101Z,5.10
2019-01-14T14:09:26.618Z,5.20
2019-01-14T14:11:56.060Z,5.30
2019-01-14T14:14:27.458Z,5.40
2019-01-14T14:17:02.975Z,5.50
2019-01-14T14:19:32.477Z,5.50
2019-01-14T14:22:03.911Z,5.60
2019-01-14T14:24:35.395Z,5.50
2019-01-14T14:27:04.973Z,5.50
2019-01-14T14:29:50.557Z,5.40
2019-01-14T14:32:20.015Z,5.30
2019-01-14T14:34:51.504Z,5.10
2019-01-14T14:37:28.828Z,5.10
2019-01-14T14:40:00.393Z,5.20
2019-01-14T14:42:30.850Z,5.10
2019-01-14T14:45:01.002Z,5.10
2019-01-14T14:47:37.295Z,5.10
2019-01-14T14:50:10.216Z,5.20
2019-01-14T14:52:39.573Z,5.20
2019-01-14T14:55:09.041Z,5.20
2019-01-14T14:57:38.601Z,5.20
2019-01-14T15:00:14.289Z,5.20
2019-01-14T15:02:43.763Z,5.20
2019-01-14T15:05:21.662Z,5.20
2019-01-14T15:07:51.815Z,5.10
2019-01-14T15:10:22.837Z,5.10
2019-01-14T15:13:05.640Z,5.10
2019-01-14T15:15:41.125Z,5.10
2019-01-14T15:18:12.636Z,5.00
2019-01-14T15:20:42.083Z,4.50
2019-01-14T15:23:11.527Z,4.00
2019-01-14T15:25:43.028Z,3.90
2019-01-14T15:28:12.458Z,4.00
2019-01-14T15:30:45.215Z,3.90
2019-01-14T15:33:14.754Z,3.70
2019-01-14T15:35:44.324Z,3.60
2019-01-14T15:38:13.755Z,3.60
2019-01-14T15:40:43.221Z,3.60
2019-01-14T15:43:14.650Z,3.70
2019-01-14T15:45:50.443Z,3.70
2019-01-14T15:48:19.873Z,3.70
2019-01-14T15:50:54.438Z,3.80
2019-01-14T15:53:23.873Z,3.80
2019-01-14T15:55:53.372Z,3.80
2019-01-14T15:58:22.775Z,3.70
2019-01-14T16:00:52.233Z,3.80
2019-01-14T16:03:22.768Z,3.80
2019-01-14T16:05:52.291Z,3.80
2019-01-14T16:08:24.949Z,3.90
2019-01-14T16:11:05.434Z,4.00
2019-01-14T16:13:36.933Z,3.90
2019-01-14T16:16:07.329Z,4.00
2019-01-14T16:18:37.814Z,4.00
2019-01-14T16:21:08.257Z,4.00
2019-01-14T16:23:37.764Z,4.10
2019-01-14T16:26:10.816Z,4.10
2019-01-14T16:28:40.288Z,4.20
2019-01-14T16:31:11.723Z,4.20
2019-01-14T16:33:41.591Z,4.30
2019-01-14T16:36:11.108Z,4.30
2019-01-14T16:38:41.597Z,4.30
2019-01-14T16:41:16.380Z,4.30
2019-01-14T16:43:45.842Z,4.40
2019-01-14T16:46:17.303Z,4.40
2019-01-14T16:48:48.839Z,4.40
2019-01-14T16:51:24.456Z,4.40
2019-01-14T16:53:53.906Z,4.40
2019-01-14T16:56:29.218Z,4.40
2019-01-14T16:58:58.621Z,4.40
2019-01-14T17:01:28.068Z,4.40
2019-01-14T17:03:57.554Z,4.30
2019-01-14T17:06:28.019Z,4.30
2019-01-14T17:09:01.588Z,4.30
2019-01-14T17:11:38.833Z,4.30
2019-01-14T17:14:10.277Z,4.30
2019-01-14T17:16:40.698Z,4.30
2019-01-14T17:19:10.184Z,4.30
2019-01-14T17:21:39.667Z,4.30
2019-01-14T17:24:18.102Z,4.30
2019-01-14T17:26:47.531Z,4.30
2019-01-14T17:29:26.238Z,4.30
2019-01-14T17:31:55.633Z,4.30
2019-01-14T17:34:27.398Z,4.30
2019-01-14T17:36:56.946Z,4.30
2019-01-14T17:39:27.364Z,4.30
2019-01-14T17:41:58.518Z,4.30
2019-01-14T17:44:27.999Z,4.30
2019-01-14T17:46:59.408Z,4.30
2019-01-14T17:49:30.002Z,4.20
2019-01-14T17:51:59.524Z,4.20
2019-01-14T17:54:30.002Z,4.20
2019-01-14T17:57:01.616Z,4.10
2019-01-14T17:59:31.046Z,4.00
2019-01-14T18:02:00.509Z,3.80
2019-01-14T18:04:35.828Z,3.60
2019-01-14T18:07:19.800Z,3.50
2019-01-14T18:09:51.202Z,3.50
2019-01-14T18:12:20.642Z,3.50
2019-01-14T18:15:02.332Z,3.50
2019-01-14T18:17:34.572Z,3.50
2019-01-14T18:20:05.246Z,3.50
2019-01-14T18:22:34.664Z,3.50
2019-01-14T18:25:06.865Z,3.50
2019-01-14T18:27:36.387Z,3.50
2019-01-14T18:30:10.534Z,3.60
2019-01-14T18:32:40.042Z,3.60
2019-01-14T18:35:10.431Z,3.60
2019-01-14T18:37:39.950Z,3.60
2019-01-14T18:40:12.621Z,3.60
2019-01-14T18:42:42.303Z,3.60
2019-01-14T18:45:19.567Z,3.60
2019-01-14T18:47:49.419Z,3.60
2019-01-14T18:50:22.684Z,3.60
2019-01-14T18:52:54.337Z,3.60
2019-01-14T18:55:24.792Z,3.70
2019-01-14T18:57:54.214Z,3.70
2019-01-14T19:00:24.736Z,3.70
2019-01-14T19:02:56.094Z,3.70
2019-01-14T19:05:26.415Z,3.70
2019-01-14T19:07:57.922Z,3.70
2019-01-14T19:10:29.401Z,3.70
2019-01-14T19:12:59.841Z,3.70
2019-01-14T19:15:29.256Z,3.70
2019-01-14T19:17:59.695Z,3.60
2019-01-14T19:20:40.269Z,3.60
2019-01-14T19:23:09.665Z,3.60
2019-01-14T19:25:40.115Z,3.70
2019-01-14T19:28:10.661Z,3.70
2019-01-14T19:30:48.378Z,3.70
2019-01-14T19:33:18.836Z,3.70
2019-01-14T19:35:51.444Z,3.70
2019-01-14T19:38:21.231Z,3.70
2019-01-14T19:40:51.697Z,3.70
2019-01-14T19:43:24.197Z,3.70
2019-01-14T19:45:55.599Z,3.70
2019-01-14T19:48:26.090Z,3.70
2019-01-14T19:50:56.526Z,3.80
2019-01-14T19:53:26.006Z,3.70
2019-01-14T19:56:01.269Z,3.80
2019-01-14T19:58:30.711Z,3.80
2019-01-14T20:01:00.089Z,3.80
2019-01-14T20:03:31.604Z,3.80
2019-01-14T20:06:01.210Z,3.80
2019-01-14T20:08:30.554Z,3.80
2019-01-14T20:11:09.004Z,3.80
2019-01-14T20:13:33.150Z,3.80
2019-01-14T20:16:03.562Z,3.80
2019-01-14T20:18:33.007Z,3.80
2019-01-14T20:21:03.442Z,3.80
2019-01-14T20:23:43.911Z,3.80
2019-01-14T20:26:15.664Z,3.80
2019-01-14T20:28:45.116Z,3.80
2019-01-14T20:31:14.598Z,3.80
2019-01-14T20:33:44.019Z,3.80
2019-01-14T20:36:15.665Z,3.80
2019-01-14T20:38:46.138Z,3.80
2019-01-14T20:41:18.650Z,3.80
2019-01-14T20:43:47.748Z,3.80
2019-01-14T20:46:20.401Z,3.80
2019-01-14T20:48:49.838Z,3.80
2019-01-14T20:51:20.262Z,3.80
2019-01-14T20:53:51.730Z,3.80
2019-01-14T20:56:21.152Z,3.80
2019-01-14T20:58:50.713Z,3.80
2019-01-14T21:01:20.089Z,3.80
2019-01-14T21:03:49.613Z,3.80
2019-01-14T21:06:19.270Z,3.80
2019-01-14T21:08:49.795Z,3.80
2019-01-14T21:11:24.008Z,3.80
2019-01-14T21:13:52.269Z,3.80
2019-01-14T21:16:36.935Z,3.80
2019-01-14T21:19:07.415Z,3.80
2019-01-14T21:21:36.873Z,3.80
2019-01-14T21:24:07.380Z,3.70
2019-01-14T21:26:37.118Z,3.70
2019-01-14T21:29:06.735Z,3.70
2019-01-14T21:31:36.207Z,3.60
2019-01-14T21:34:05.656Z,3.60
2019-01-14T21:36:44.067Z,3.60
2019-01-14T21:39:14.661Z,3.50
2019-01-14T21:41:49.877Z,3.50
2019-01-14T21:44:20.288Z,3.50
2019-01-14T21:46:49.687Z,3.50
2019-01-14T21:49:20.202Z,3.50
2019-01-14T21:51:49.651Z,3.50
2019-01-14T21:54:19.079Z,3.50
2019-01-14T21:56:50.003Z,3.40
2019-01-14T21:59:26.299Z,3.40
2019-01-14T22:01:55.708Z,3.40
2019-01-14T22:04:28.382Z,3.40
2019-01-14T22:07:05.853Z,3.30
2019-01-14T22:09:35.701Z,3.30
2019-01-14T22:12:05.140Z,3.30
2019-01-14T22:14:36.645Z,3.20
2019-01-14T22:17:07.220Z,3.10
2019-01-14T22:19:37.742Z,3.10
2019-01-14T22:22:07.205Z,3.00
2019-01-14T22:24:37.657Z,3.00
2019-01-14T22:27:07.043Z,3.00
2019-01-14T22:29:42.424Z,2.90
2019-01-14T22:32:11.924Z,2.90
2019-01-14T22:34:41.683Z,2.80
2019-01-14T22:37:13.112Z,2.80
2019-01-14T22:39:44.634Z,2.80
2019-01-14T22:42:19.153Z,2.80
2019-01-14T22:44:48.644Z,2.80
2019-01-14T22:47:25.021Z,2.80
2019-01-14T22:49:56.484Z,2.70
2019-01-14T22:52:25.866Z,2.70
2019-01-14T22:54:55.315Z,2.60
2019-01-14T22:57:26.935Z,2.60
2019-01-14T23:00:14.691Z,2.60
2019-01-14T23:02:44.087Z,2.60
2019-01-14T23:05:21.355Z,2.60
2019-01-14T23:07:52.805Z,2.60
2019-01-14T23:10:22.543Z,2.60
2019-01-14T23:12:51.928Z,2.50
2019-01-14T23:15:27.450Z,2.40
2019-01-14T23:17:57.011Z,2.30
2019-01-14T23:20:35.576Z,2.20
2019-01-14T23:23:06.998Z,2.30
2019-01-14T23:25:40.563Z,2.30
2019-01-14T23:28:15.899Z,2.30
2019-01-14T23:30:45.321Z,2.20
2019-01-14T23:33:14.831Z,2.30
2019-01-14T23:35:44.448Z,2.30
2019-01-14T23:38:13.864Z,2.20
2019-01-14T23:40:46.863Z,2.30
2019-01-14T23:43:23.758Z,2.20
2019-01-14T23:45:57.113Z,2.20
2019-01-14T23:48:30.853Z,2.10
2019-01-14T23:51:03.832Z,2.10
2019-01-14T23:53:34.680Z,2.00
2019-01-14T23:56:06.173Z,2.00
2019-01-14T23:58:45.284Z,2.10
